Time;durP1;ratioP1;P1;durP2;ratioP2;P2;SDS_P1;SDS_P2;PMS_P1;PMS_P2;Temp;Humidity;BMP_temperature;BMP_pressure;BME280_temperature;BME280_humidity;BME280_pressure;Samples;Min_cycle;Max_cycle;Signal;HPM_P1;HPM_P2
2022/10/09 00:00:26;;;;;;;10.65;6.28;;;;;;;;;;5034891;28;20051;-82
2022/10/09 00:02:52;;;;;;;11.27;6.53;;;;;;;;;;5055036;28;20067;-82
2022/10/09 00:05:19;;;;;;;9.32;5.93;;;;;;;;;;5037477;28;20059;-84
2022/10/09 00:07:45;;;;;;;11.60;6.43;;;;;;;;;;5035091;28;20039;-83
2022/10/09 00:10:11;;;;;;;9.60;6.30;;;;;;;;;;5053172;28;20476;-83
2022/10/09 00:12:37;;;;;;;9.65;6.90;;;;;;;;;;5055320;28;20029;-84
2022/10/09 00:15:03;;;;;;;9.25;6.15;;;;;;;;;;5055019;28;20025;-85
2022/10/09 00:17:30;;;;;;;9.88;6.45;;;;;;;;;;5054640;28;20029;-84
2022/10/09 00:19:56;;;;;;;9.50;6.40;;;;;;;;;;5055928;28;20029;-84
2022/10/09 00:22:23;;;;;;;9.85;6.75;;;;;;;;;;5054777;28;20040;-84
2022/10/09 00:24:50;;;;;;;10.45;6.47;;;;;;;;;;5037294;28;20379;-83
2022/10/09 00:27:16;;;;;;;10.73;6.45;;;;;;;;;;5036090;28;20095;-84
2022/10/09 00:29:42;;;;;;;10.27;7.00;;;;;;;;;;5052118;28;20867;-83
2022/10/09 00:32:08;;;;;;;10.50;6.53;;;;;;;;;;5051666;28;20101;-82
2022/10/09 00:34:34;;;;;;;10.30;6.32;;;;;;;;;;5054646;28;20021;-84
2022/10/09 00:37:00;;;;;;;9.90;6.97;;;;;;;;;;5055494;28;20033;-83
2022/10/09 00:39:26;;;;;;;10.20;6.32;;;;;;;;;;5036425;28;20037;-84
2022/10/09 00:41:52;;;;;;;9.65;6.38;;;;;;;;;;5053598;28;20081;-83
2022/10/09 00:44:36;;;;;;;9.35;6.85;;;;;;;;;;5054965;28;20029;-83
2022/10/09 00:47:03;;;;;;;8.55;6.43;;;;;;;;;;5055212;28;20025;-82
2022/10/09 00:49:31;;;;;;;9.80;6.65;;;;;;;;;;5054088;28;20040;-83
2022/10/09 00:52:02;;;;;;;12.00;6.80;;;;;;;;;;5052913;28;20040;-83
2022/10/09 00:54:30;;;;;;;10.18;6.80;;;;;;;;;;5035593;28;20044;-83
2022/10/09 00:56:56;;;;;;;10.35;6.15;;;;;;;;;;5053235;28;20032;-83
2022/10/09 00:59:22;;;;;;;8.10;5.95;;;;;;;;;;5034722;28;20442;-84
2022/10/09 01:01:48;;;;;;;10.77;5.93;;;;;;;;;;5040312;28;20044;-84
2022/10/09 01:04:14;;;;;;;11.43;6.63;;;;;;;;;;5023102;28;20025;-82
2022/10/09 01:06:46;;;;;;;9.82;6.18;;;;;;;;;;5035793;28;20467;-83
2022/10/09 01:09:14;;;;;;;8.85;5.75;;;;;;;;;;5052555;28;20036;-83
2022/10/09 01:11:57;;;;;;;8.93;5.07;;;;;;;;;;5053191;28;20510;-84
2022/10/09 01:14:32;;;;;;;8.80;4.78;;;;;;;;;;5053742;28;20103;-83
2022/10/09 01:16:58;;;;;;;7.65;4.55;;;;;;;;;;5053079;28;20575;-83
2022/10/09 01:19:27;;;;;;;9.05;5.18;;;;;;;;;;5053162;28;20053;-84
2022/10/09 01:22:01;;;;;;;6.82;3.95;;;;;;;;;;5053301;28;20028;-83
2022/10/09 01:24:47;;;;;;;7.47;4.60;;;;;;;;;;5053101;28;20124;-84
2022/10/09 01:27:18;;;;;;;7.18;4.28;;;;;;;;;;5034351;28;20017;-83
2022/10/09 01:29:47;;;;;;;8.10;4.50;;;;;;;;;;5053119;28;20356;-84
2022/10/09 01:32:16;;;;;;;6.03;3.63;;;;;;;;;;5052837;28;20041;-82
2022/10/09 01:34:43;;;;;;;10.07;4.10;;;;;;;;;;5037141;28;20032;-83
2022/10/09 01:37:10;;;;;;;8.95;4.03;;;;;;;;;;5053676;28;20037;-83
2022/10/09 01:39:36;;;;;;;6.47;3.75;;;;;;;;;;5050760;28;20032;-84
2022/10/09 01:42:03;;;;;;;9.63;3.90;;;;;;;;;;5051213;28;20039;-82
2022/10/09 01:44:30;;;;;;;9.80;4.47;;;;;;;;;;5053840;28;20358;-82
2022/10/09 01:46:57;;;;;;;7.55;3.95;;;;;;;;;;5054008;28;20063;-82
2022/10/09 01:49:22;;;;;;;6.82;3.28;;;;;;;;;;5033980;28;20132;-82
2022/10/09 01:51:48;;;;;;;6.78;3.20;;;;;;;;;;5034495;28;20521;-81
2022/10/09 01:54:16;;;;;;;5.72;3.45;;;;;;;;;;5022070;28;20103;-82
2022/10/09 01:56:43;;;;;;;5.82;3.05;;;;;;;;;;5053687;28;20029;-83
2022/10/09 01:59:12;;;;;;;5.32;2.83;;;;;;;;;;5053696;28;20025;-83
2022/10/09 02:01:40;;;;;;;6.45;2.80;;;;;;;;;;5053457;28;20029;-83
2022/10/09 02:04:08;;;;;;;4.85;2.65;;;;;;;;;;5035982;28;20056;-82
2022/10/09 02:06:35;;;;;;;5.55;2.85;;;;;;;;;;5035739;28;20024;-83
2022/10/09 02:09:02;;;;;;;7.65;3.22;;;;;;;;;;5052072;28;20109;-82
2022/10/09 02:11:30;;;;;;;6.25;3.08;;;;;;;;;;5035470;28;20063;-83
2022/10/09 02:13:58;;;;;;;6.25;3.00;;;;;;;;;;5020844;28;20036;-84
2022/10/09 02:16:27;;;;;;;8.13;2.80;;;;;;;;;;5034265;28;20032;-82
2022/10/09 02:19:01;;;;;;;7.10;3.03;;;;;;;;;;5048057;28;20035;-82
2022/10/09 02:21:42;;;;;;;5.70;2.72;;;;;;;;;;5033734;28;20028;-83
2022/10/09 02:24:11;;;;;;;6.72;3.22;;;;;;;;;;5050831;28;20040;-83
2022/10/09 02:26:37;;;;;;;7.97;2.88;;;;;;;;;;5054338;28;20013;-84
2022/10/09 02:29:04;;;;;;;6.65;3.00;;;;;;;;;;5053290;28;20036;-84
2022/10/09 02:31:31;;;;;;;5.68;2.60;;;;;;;;;;5073043;28;20397;-84
2022/10/09 02:33:58;;;;;;;6.30;3.05;;;;;;;;;;5057045;28;20056;-83
2022/10/09 02:36:24;;;;;;;6.85;2.95;;;;;;;;;;5074512;28;20021;-83
2022/10/09 02:38:50;;;;;;;5.68;2.65;;;;;;;;;;5063504;28;20094;-83
2022/10/09 02:41:16;;;;;;;6.60;3.90;;;;;;;;;;5054405;28;20475;-83
2022/10/09 02:43:42;;;;;;;6.10;3.13;;;;;;;;;;5037592;28;20029;-84
2022/10/09 02:46:08;;;;;;;6.45;3.10;;;;;;;;;;5054765;28;20118;-85
2022/10/09 02:48:34;;;;;;;6.68;2.80;;;;;;;;;;5035656;28;20426;-82
2022/10/09 02:51:00;;;;;;;6.85;2.80;;;;;;;;;;5056816;28;20550;-84
2022/10/09 02:53:27;;;;;;;6.28;2.75;;;;;;;;;;5058387;28;20028;-83
2022/10/09 02:55:53;;;;;;;6.07;3.17;;;;;;;;;;5057516;28;20029;-83
2022/10/09 02:58:19;;;;;;;6.10;3.05;;;;;;;;;;5056602;28;20040;-83
2022/10/09 03:00:51;;;;;;;6.03;2.88;;;;;;;;;;5057257;28;20507;-83
2022/10/09 03:03:18;;;;;;;6.20;2.75;;;;;;;;;;5057020;28;20025;-83
2022/10/09 03:05:44;;;;;;;6.43;3.00;;;;;;;;;;5039062;28;20044;-83
2022/10/09 03:08:10;;;;;;;6.10;2.70;;;;;;;;;;5055191;28;20617;-83
2022/10/09 03:10:37;;;;;;;6.20;2.78;;;;;;;;;;5037646;28;20025;-83
2022/10/09 03:13:04;;;;;;;5.93;2.58;;;;;;;;;;5019543;28;20025;-83
2022/10/09 03:15:33;;;;;;;5.50;2.45;;;;;;;;;;5053610;28;20025;-84
2022/10/09 03:17:59;;;;;;;5.20;2.60;;;;;;;;;;5056019;28;20494;-83
2022/10/09 03:20:25;;;;;;;5.55;2.35;;;;;;;;;;5057327;28;20033;-83
2022/10/09 03:22:51;;;;;;;5.78;2.67;;;;;;;;;;5039426;28;20021;-83
2022/10/09 03:25:17;;;;;;;7.90;2.83;;;;;;;;;;5057204;28;20694;-83
2022/10/09 03:27:43;;;;;;;4.78;2.47;;;;;;;;;;5058327;28;20021;-83
2022/10/09 03:30:09;;;;;;;5.85;2.92;;;;;;;;;;5053146;28;20444;-83
2022/10/09 03:32:36;;;;;;;6.07;2.63;;;;;;;;;;5056591;28;20039;-82
2022/10/09 03:35:02;;;;;;;5.55;2.67;;;;;;;;;;5038440;28;20471;-83
2022/10/09 03:37:28;;;;;;;5.47;2.67;;;;;;;;;;5037575;28;20497;-83
2022/10/09 03:39:54;;;;;;;5.85;2.65;;;;;;;;;;5037418;28;20029;-83
2022/10/09 03:42:21;;;;;;;5.47;2.65;;;;;;;;;;5054926;28;20029;-84
2022/10/09 03:44:47;;;;;;;6.40;2.58;;;;;;;;;;5055412;28;20025;-82
2022/10/09 03:47:13;;;;;;;5.78;2.60;;;;;;;;;;5056331;28;20482;-84
2022/10/09 03:49:39;;;;;;;6.53;2.95;;;;;;;;;;5039055;28;20087;-82
2022/10/09 03:52:04;;;;;;;7.45;2.60;;;;;;;;;;5062769;28;20033;-82
2022/10/09 03:54:30;;;;;;;5.53;2.75;;;;;;;;;;5054007;28;20064;-83
2022/10/09 03:56:56;;;;;;;5.95;2.97;;;;;;;;;;5055644;28;20029;-84
2022/10/09 03:59:22;;;;;;;7.25;3.20;;;;;;;;;;5036710;28;20037;-83
2022/10/09 04:01:48;;;;;;;5.47;2.60;;;;;;;;;;5054525;28;20041;-82
2022/10/09 04:04:14;;;;;;;6.82;2.60;;;;;;;;;;5055139;28;20390;-82
2022/10/09 04:06:40;;;;;;;7.38;3.35;;;;;;;;;;5054388;28;20056;-82
2022/10/09 04:09:06;;;;;;;6.35;3.05;;;;;;;;;;5037420;28;20021;-83
2022/10/09 04:11:32;;;;;;;6.78;2.55;;;;;;;;;;5054643;28;20394;-82
2022/10/09 04:13:59;;;;;;;6.78;2.70;;;;;;;;;;5063673;28;20064;-83
2022/10/09 04:16:25;;;;;;;5.75;2.70;;;;;;;;;;5055254;28;20276;-83
2022/10/09 04:18:51;;;;;;;5.22;2.67;;;;;;;;;;5053589;28;20040;-83
2022/10/09 04:21:17;;;;;;;5.43;3.00;;;;;;;;;;5054559;28;20021;-82
2022/10/09 04:23:43;;;;;;;5.53;2.85;;;;;;;;;;5051788;28;20033;-82
2022/10/09 04:26:10;;;;;;;6.45;2.97;;;;;;;;;;5050981;28;20017;-82
2022/10/09 04:28:36;;;;;;;5.68;2.88;;;;;;;;;;5054573;28;20028;-83
2022/10/09 04:31:02;;;;;;;5.45;2.80;;;;;;;;;;5055104;28;20021;-83
2022/10/09 04:33:28;;;;;;;6.20;2.90;;;;;;;;;;5054383;28;20036;-83
2022/10/09 04:35:55;;;;;;;5.45;2.83;;;;;;;;;;5037062;28;20115;-82
2022/10/09 04:38:21;;;;;;;5.82;2.97;;;;;;;;;;5053634;28;20386;-83
2022/10/09 04:40:57;;;;;;;5.95;3.25;;;;;;;;;;5035105;28;20052;-83
2022/10/09 04:43:23;;;;;;;7.95;3.20;;;;;;;;;;5048541;28;20032;-83
2022/10/09 04:45:49;;;;;;;7.00;2.90;;;;;;;;;;5052229;28;20034;-83
2022/10/09 04:48:15;;;;;;;9.60;3.22;;;;;;;;;;5053273;28;20048;-82
2022/10/09 04:50:41;;;;;;;5.43;2.75;;;;;;;;;;5051959;28;20021;-82
2022/10/09 04:53:08;;;;;;;7.68;3.85;;;;;;;;;;5050234;28;20056;-82
2022/10/09 04:55:38;;;;;;;7.80;3.60;;;;;;;;;;5034032;28;20383;-82
2022/10/09 04:58:05;;;;;;;5.93;3.45;;;;;;;;;;5034032;28;20017;-83
2022/10/09 05:00:31;;;;;;;6.65;3.10;;;;;;;;;;5040137;28;20059;-83
2022/10/09 05:02:57;;;;;;;7.53;3.40;;;;;;;;;;5059081;28;20020;-83
2022/10/09 05:05:23;;;;;;;7.07;3.90;;;;;;;;;;5056813;28;20021;-83
2022/10/09 05:07:49;;;;;;;6.57;3.55;;;;;;;;;;5055528;28;20025;-84
2022/10/09 05:10:15;;;;;;;6.90;2.90;;;;;;;;;;5038038;28;20025;-83
2022/10/09 05:12:41;;;;;;;5.55;2.80;;;;;;;;;;5054230;28;20499;-83
2022/10/09 05:15:07;;;;;;;6.28;3.45;;;;;;;;;;5055077;28;20042;-83
2022/10/09 05:17:33;;;;;;;6.38;3.28;;;;;;;;;;5054933;28;20052;-83
2022/10/09 05:19:59;;;;;;;7.03;3.13;;;;;;;;;;5047643;28;20056;-82
2022/10/09 05:22:25;;;;;;;7.68;3.35;;;;;;;;;;5052966;28;20534;-83
2022/10/09 05:24:51;;;;;;;6.60;2.90;;;;;;;;;;5051627;28;20024;-82
2022/10/09 05:27:17;;;;;;;5.75;2.90;;;;;;;;;;5033393;28;20043;-82
2022/10/09 05:29:43;;;;;;;7.18;2.83;;;;;;;;;;5050919;28;20017;-82
2022/10/09 05:32:09;;;;;;;5.93;3.05;;;;;;;;;;5032675;28;20120;-82
2022/10/09 05:34:35;;;;;;;7.50;3.00;;;;;;;;;;5048344;28;20407;-82
2022/10/09 05:37:01;;;;;;;6.20;3.05;;;;;;;;;;5051352;28;20040;-82
2022/10/09 05:39:27;;;;;;;5.90;2.92;;;;;;;;;;5050939;28;21040;-84
2022/10/09 05:41:53;;;;;;;6.35;2.75;;;;;;;;;;5053595;28;20082;-84
2022/10/09 05:44:19;;;;;;;7.85;2.95;;;;;;;;;;5036476;28;20116;-84
2022/10/09 05:46:45;;;;;;;6.15;2.97;;;;;;;;;;5051277;28;20329;-84
2022/10/09 05:49:11;;;;;;;7.95;3.50;;;;;;;;;;5030944;28;20041;-83
2022/10/09 05:51:39;;;;;;;5.65;2.60;;;;;;;;;;5053634;28;20384;-84
2022/10/09 05:54:06;;;;;;;6.03;3.08;;;;;;;;;;5052851;28;20022;-83
2022/10/09 05:56:33;;;;;;;6.25;3.60;;;;;;;;;;5033000;28;20376;-83
2022/10/09 05:59:09;;;;;;;5.20;2.75;;;;;;;;;;5052923;28;20029;-83
2022/10/09 06:01:37;;;;;;;7.40;3.17;;;;;;;;;;5037310;28;20399;-84
2022/10/09 06:04:08;;;;;;;6.10;3.35;;;;;;;;;;5053503;28;20021;-83
2022/10/09 06:06:35;;;;;;;6.65;2.85;;;;;;;;;;5051782;28;20082;-83
2022/10/09 06:09:03;;;;;;;5.00;2.40;;;;;;;;;;5035373;28;20060;-84
2022/10/09 06:11:30;;;;;;;7.15;3.17;;;;;;;;;;5053446;28;20123;-83
2022/10/09 06:13:57;;;;;;;6.45;2.95;;;;;;;;;;5036876;28;20565;-84
2022/10/09 06:16:24;;;;;;;6.78;3.00;;;;;;;;;;5036573;28;20558;-84
2022/10/09 06:18:51;;;;;;;6.53;2.70;;;;;;;;;;5045410;28;20025;-84
2022/10/09 06:21:17;;;;;;;5.68;2.90;;;;;;;;;;5053673;28;20032;-84
2022/10/09 06:23:44;;;;;;;6.13;2.90;;;;;;;;;;5036883;28;20025;-84
2022/10/09 06:26:11;;;;;;;5.40;2.90;;;;;;;;;;5039033;28;20025;-83
2022/10/09 06:28:37;;;;;;;5.63;2.70;;;;;;;;;;5056994;28;20032;-84
2022/10/09 06:31:05;;;;;;;5.38;2.65;;;;;;;;;;5054180;28;20019;-84
2022/10/09 06:33:32;;;;;;;5.85;2.63;;;;;;;;;;5039909;28;20047;-84
2022/10/09 06:36:14;;;;;;;6.35;2.85;;;;;;;;;;5058197;28;20025;-84
2022/10/09 06:38:40;;;;;;;6.25;2.92;;;;;;;;;;5057663;28;20059;-83
2022/10/09 06:41:08;;;;;;;5.40;3.13;;;;;;;;;;5056771;28;20033;-83
2022/10/09 06:43:34;;;;;;;6.78;3.03;;;;;;;;;;5038696;28;20471;-82
2022/10/09 06:46:01;;;;;;;5.95;3.05;;;;;;;;;;5054912;28;20437;-83
2022/10/09 06:48:30;;;;;;;6.07;3.15;;;;;;;;;;5053831;28;20391;-83
2022/10/09 06:51:04;;;;;;;6.45;2.80;;;;;;;;;;5057244;28;20060;-83
2022/10/09 06:53:30;;;;;;;5.75;2.88;;;;;;;;;;5035929;28;20479;-85
2022/10/09 06:55:57;;;;;;;5.63;2.67;;;;;;;;;;5055185;28;20033;-85
2022/10/09 06:58:24;;;;;;;5.07;2.75;;;;;;;;;;5053666;28;20024;-85
2022/10/09 07:00:50;;;;;;;5.30;2.88;;;;;;;;;;5055603;28;20035;-83
2022/10/09 07:03:16;;;;;;;6.80;3.10;;;;;;;;;;5038814;28;20024;-83
2022/10/09 07:05:42;;;;;;;6.20;3.13;;;;;;;;;;5057332;28;20460;-83
2022/10/09 07:08:08;;;;;;;7.00;2.97;;;;;;;;;;5054412;28;20052;-83
2022/10/09 07:10:34;;;;;;;7.93;4.07;;;;;;;;;;5055172;28;20092;-83
2022/10/09 07:13:00;;;;;;;6.57;3.53;;;;;;;;;;5040612;28;20484;-83
2022/10/09 07:15:26;;;;;;;6.43;3.47;;;;;;;;;;5057667;28;20039;-83
2022/10/09 07:17:51;;;;;;;6.68;2.90;;;;;;;;;;5055875;28;20032;-83
2022/10/09 07:20:17;;;;;;;7.00;2.67;;;;;;;;;;5039203;28;20468;-84
2022/10/09 07:22:43;;;;;;;6.72;3.38;;;;;;;;;;5038172;28;20025;-85
2022/10/09 07:25:11;;;;;;;5.95;3.35;;;;;;;;;;5042698;28;20033;-84
2022/10/09 07:27:37;;;;;;;6.00;2.88;;;;;;;;;;5037956;28;20021;-84
2022/10/09 07:30:03;;;;;;;5.97;3.33;;;;;;;;;;5043339;28;20498;-84
2022/10/09 07:32:30;;;;;;;5.82;2.70;;;;;;;;;;5037952;28;20060;-83
2022/10/09 07:34:56;;;;;;;5.95;2.83;;;;;;;;;;5037794;28;20468;-85
2022/10/09 07:37:22;;;;;;;6.53;2.85;;;;;;;;;;5037521;28;20050;-82
2022/10/09 07:39:48;;;;;;;4.95;2.75;;;;;;;;;;5054989;28;20040;-85
2022/10/09 07:42:14;;;;;;;4.70;2.90;;;;;;;;;;5054301;28;20079;-84
2022/10/09 07:44:40;;;;;;;5.50;2.60;;;;;;;;;;5021397;28;20025;-84
2022/10/09 07:47:06;;;;;;;5.25;2.60;;;;;;;;;;5058809;28;20532;-85
2022/10/09 07:49:32;;;;;;;4.95;2.40;;;;;;;;;;5057475;28;20070;-86
2022/10/09 07:51:58;;;;;;;7.05;2.72;;;;;;;;;;5039881;28;21193;-84
2022/10/09 07:54:24;;;;;;;6.20;2.65;;;;;;;;;;5057823;28;20104;-84
2022/10/09 07:56:50;;;;;;;6.80;2.60;;;;;;;;;;5058389;28;20024;-85
2022/10/09 07:59:16;;;;;;;6.35;2.75;;;;;;;;;;5036617;28;20029;-85
2022/10/09 08:01:42;;;;;;;5.20;2.33;;;;;;;;;;5057168;28;20029;-85
2022/10/09 08:04:08;;;;;;;5.70;2.42;;;;;;;;;;5038273;28;20727;-86
2022/10/09 08:06:35;;;;;;;4.63;2.28;;;;;;;;;;5057371;28;20028;-86
2022/10/09 08:09:01;;;;;;;5.63;2.50;;;;;;;;;;5041839;28;20097;-86
2022/10/09 08:11:28;;;;;;;4.70;2.28;;;;;;;;;;5051835;28;20028;-85
2022/10/09 08:13:54;;;;;;;4.18;2.10;;;;;;;;;;5054641;28;20479;-86
2022/10/09 08:16:21;;;;;;;5.55;2.40;;;;;;;;;;5051621;28;20037;-86
2022/10/09 08:18:48;;;;;;;5.07;2.47;;;;;;;;;;5067198;28;20042;-87
2022/10/09 08:21:15;;;;;;;4.70;2.40;;;;;;;;;;5030840;28;20029;-85
2022/10/09 08:23:41;;;;;;;4.85;2.40;;;;;;;;;;5064061;28;20025;-85
2022/10/09 08:26:15;;;;;;;5.13;2.00;;;;;;;;;;5040865;28;20028;-86
2022/10/09 08:28:42;;;;;;;6.05;2.30;;;;;;;;;;5029465;28;20025;-84
2022/10/09 08:31:12;;;;;;;4.20;2.10;;;;;;;;;;5039352;28;20028;-85
2022/10/09 08:33:38;;;;;;;4.78;2.30;;;;;;;;;;5051981;28;20006;-85
2022/10/09 08:36:06;;;;;;;5.20;2.85;;;;;;;;;;5035796;28;20029;-85
2022/10/09 08:38:32;;;;;;;6.45;3.35;;;;;;;;;;5058973;28;20107;-85
2022/10/09 08:41:01;;;;;;;5.05;2.60;;;;;;;;;;5056115;28;20068;-85
2022/10/09 08:43:29;;;;;;;5.55;2.20;;;;;;;;;;5067420;28;20021;-85
2022/10/09 08:45:57;;;;;;;4.97;2.80;;;;;;;;;;5052870;28;20076;-84
2022/10/09 08:48:25;;;;;;;6.43;2.85;;;;;;;;;;5050419;28;20041;-87
2022/10/09 08:50:53;;;;;;;4.50;2.50;;;;;;;;;;5042977;28;20052;-90
2022/10/09 08:53:22;;;;;;;5.28;2.50;;;;;;;;;;5039941;28;20021;-89
2022/10/09 08:55:49;;;;;;;5.75;2.45;;;;;;;;;;5049236;28;20025;-87
2022/10/09 08:58:16;;;;;;;4.95;2.72;;;;;;;;;;5044355;28;20040;-88
2022/10/09 09:00:44;;;;;;;5.75;3.22;;;;;;;;;;5052379;28;20030;-86
2022/10/09 09:03:16;;;;;;;5.72;2.60;;;;;;;;;;5053365;28;20052;-86
2022/10/09 09:05:50;;;;;;;4.82;2.58;;;;;;;;;;5047103;28;20539;-84
2022/10/09 09:08:41;;;;;;;5.45;2.78;;;;;;;;;;5050118;28;20041;-88
2022/10/09 09:11:07;;;;;;;5.03;2.70;;;;;;;;;;5042802;28;20506;-87
2022/10/09 09:13:36;;;;;;;5.55;2.80;;;;;;;;;;5043464;28;20052;-87
2022/10/09 09:16:25;;;;;;;5.03;3.35;;;;;;;;;;5042404;28;20036;-86
2022/10/09 09:18:51;;;;;;;6.93;4.85;;;;;;;;;;5045423;28;20041;-86
2022/10/09 09:21:23;;;;;;;7.78;5.45;;;;;;;;;;5043986;28;20112;-86
2022/10/09 09:23:49;;;;;;;6.63;4.55;;;;;;;;;;5042720;28;20044;-87
2022/10/09 09:26:16;;;;;;;5.57;3.10;;;;;;;;;;5041156;28;20025;-87
2022/10/09 09:28:43;;;;;;;5.65;3.10;;;;;;;;;;5044299;28;20021;-85
2022/10/09 09:31:18;;;;;;;4.40;2.65;;;;;;;;;;5044002;28;20033;-88
2022/10/09 09:34:02;;;;;;;5.78;2.90;;;;;;;;;;5043721;28;20421;-86
2022/10/09 09:36:34;;;;;;;5.75;2.65;;;;;;;;;;5035957;28;20063;-87
2022/10/09 09:39:00;;;;;;;4.47;2.65;;;;;;;;;;5040611;28;20040;-87
2022/10/09 09:41:28;;;;;;;4.90;2.67;;;;;;;;;;5038619;28;20032;-87
2022/10/09 09:43:54;;;;;;;5.30;2.47;;;;;;;;;;5037715;28;20091;-86
2022/10/09 09:46:21;;;;;;;4.60;2.25;;;;;;;;;;5038965;28;20467;-86
2022/10/09 09:48:48;;;;;;;8.05;3.30;;;;;;;;;;5041609;28;20049;-86
2022/10/09 09:51:19;;;;;;;6.03;2.70;;;;;;;;;;5033113;28;20223;-86
2022/10/09 09:53:49;;;;;;;5.07;2.30;;;;;;;;;;5041602;28;20083;-83
2022/10/09 09:56:16;;;;;;;4.78;2.83;;;;;;;;;;5042747;28;20442;-83
2022/10/09 09:58:46;;;;;;;5.93;2.70;;;;;;;;;;5036025;28;20018;-83
2022/10/09 10:01:23;;;;;;;6.68;2.72;;;;;;;;;;5038730;28;20040;-83
2022/10/09 10:03:51;;;;;;;5.57;2.53;;;;;;;;;;5039482;28;20079;-85
2022/10/09 10:06:24;;;;;;;4.68;2.28;;;;;;;;;;5041977;28;20029;-82
2022/10/09 10:08:50;;;;;;;;;;;;;;;;;;5041003;28;20021;-82
2022/10/09 10:11:16;;;;;;;4.28;2.25;;;;;;;;;;5028584;28;19960;-84
2022/10/09 10:13:48;;;;;;;4.85;2.00;;;;;;;;;;5037583;28;20383;-85
2022/10/09 10:16:20;;;;;;;5.35;2.50;;;;;;;;;;5039984;28;20116;-84
2022/10/09 10:18:46;;;;;;;;;;;;;;;;;;5037845;28;20045;-84
2022/10/09 10:21:13;;;;;;;5.93;2.55;;;;;;;;;;5040718;28;20383;-86
2022/10/09 10:24:00;;;;;;;5.10;2.33;;;;;;;;;;5038719;28;20064;-85
2022/10/09 10:26:26;;;;;;;7.03;2.47;;;;;;;;;;5035429;28;20136;-83
2022/10/09 10:29:00;;;;;;;4.28;2.00;;;;;;;;;;5028307;28;20156;-83
2022/10/09 10:31:41;;;;;;;5.57;2.50;;;;;;;;;;5038426;28;20021;-80
2022/10/09 10:34:13;;;;;;;5.70;3.00;;;;;;;;;;5037649;28;20071;-81
2022/10/09 10:36:39;;;;;;;5.28;2.13;;;;;;;;;;5036206;28;20038;-83
2022/10/09 10:39:12;;;;;;;4.82;2.42;;;;;;;;;;5038489;28;20057;-85
2022/10/09 10:41:44;;;;;;;5.43;2.72;;;;;;;;;;5030327;28;20021;-85
2022/10/09 10:44:37;;;;;;;8.40;2.38;;;;;;;;;;5017870;28;20033;-82
2022/10/09 10:47:05;;;;;;;4.90;2.20;;;;;;;;;;5028302;28;20026;-81
2022/10/09 10:49:32;;;;;;;4.25;2.03;;;;;;;;;;5040904;28;20032;-84
2022/10/09 10:52:00;;;;;;;5.32;2.00;;;;;;;;;;5058040;28;20029;-80
2022/10/09 10:54:29;;;;;;;7.55;2.15;;;;;;;;;;5057817;28;20092;-84
2022/10/09 10:56:55;;;;;;;4.90;2.60;;;;;;;;;;5058421;28;20032;-83
2022/10/09 10:59:38;;;;;;;4.93;2.67;;;;;;;;;;5056836;28;20055;-83
2022/10/09 11:02:23;;;;;;;5.13;2.10;;;;;;;;;;5058596;28;20372;-84
2022/10/09 11:04:49;;;;;;;4.82;2.30;;;;;;;;;;5058157;28;20110;-83
2022/10/09 11:07:18;;;;;;;4.97;2.13;;;;;;;;;;5057791;28;20475;-83
2022/10/09 11:09:44;;;;;;;4.15;2.05;;;;;;;;;;5038300;28;20089;-84
2022/10/09 11:12:24;;;;;;;4.28;1.95;;;;;;;;;;5057221;28;20059;-83
2022/10/09 11:14:57;;;;;;;4.78;1.80;;;;;;;;;;5039565;28;20024;-83
2022/10/09 11:17:35;;;;;;;4.57;1.80;;;;;;;;;;5056859;28;20046;-82
2022/10/09 11:20:01;;;;;;;4.22;1.63;;;;;;;;;;5039002;28;20063;-82
2022/10/09 11:22:27;;;;;;;4.03;1.73;;;;;;;;;;5039073;28;20021;-83
2022/10/09 11:24:53;;;;;;;5.18;2.17;;;;;;;;;;5038654;28;20036;-83
2022/10/09 11:27:29;;;;;;;5.75;1.85;;;;;;;;;;5057544;28;20021;-83
2022/10/09 11:30:01;;;;;;;3.65;1.80;;;;;;;;;;5044065;28;20051;-85
2022/10/09 11:32:30;;;;;;;4.68;2.13;;;;;;;;;;5053422;28;20020;-83
2022/10/09 11:35:02;;;;;;;4.40;2.42;;;;;;;;;;5051734;28;20033;-86
2022/10/09 11:37:33;;;;;;;4.25;1.90;;;;;;;;;;5051006;28;20437;-86
2022/10/09 11:40:01;;;;;;;3.97;1.70;;;;;;;;;;5032478;28;20025;-86
2022/10/09 11:42:28;;;;;;;4.55;2.10;;;;;;;;;;5040096;28;20029;-83
2022/10/09 11:45:04;;;;;;;3.40;1.67;;;;;;;;;;5057817;28;20509;-85
2022/10/09 11:47:30;;;;;;;4.22;2.05;;;;;;;;;;5039350;28;20557;-85
2022/10/09 11:50:08;;;;;;;4.18;1.90;;;;;;;;;;5040155;28;20055;-84
2022/10/09 11:52:52;;;;;;;4.75;1.90;;;;;;;;;;5038795;28;20025;-84
2022/10/09 11:55:20;;;;;;;4.30;1.80;;;;;;;;;;5038789;28;20506;-84
2022/10/09 11:57:46;;;;;;;6.00;2.17;;;;;;;;;;5029439;28;20032;-82
2022/10/09 12:00:13;;;;;;;4.28;2.20;;;;;;;;;;5044472;28;20036;-82
2022/10/09 12:02:39;;;;;;;4.47;1.85;;;;;;;;;;5057517;28;20031;-83
2022/10/09 12:05:38;;;;;;;4.20;2.30;;;;;;;;;;5026873;28;20022;-85
2022/10/09 12:08:13;;;;;;;4.28;1.90;;;;;;;;;;4979638;28;20030;-84
2022/10/09 12:10:41;;;;;;;5.28;2.22;;;;;;;;;;4978733;28;20054;-85
2022/10/09 12:13:07;;;;;;;4.35;2.13;;;;;;;;;;4996219;28;20034;-84
2022/10/09 12:15:36;;;;;;;4.90;2.13;;;;;;;;;;4995822;28;20617;-83
2022/10/09 12:18:13;;;;;;;3.60;1.85;;;;;;;;;;4979374;28;20038;-85
2022/10/09 12:20:40;;;;;;;4.65;2.10;;;;;;;;;;4975539;28;20027;-84
2022/10/09 12:23:08;;;;;;;4.80;1.90;;;;;;;;;;4976672;28;20034;-85
2022/10/09 12:25:40;;;;;;;4.75;1.98;;;;;;;;;;4991962;28;20101;-85
2022/10/09 12:28:12;;;;;;;3.67;1.88;;;;;;;;;;4979692;28;20033;-85
2022/10/09 12:30:39;;;;;;;3.45;1.60;;;;;;;;;;4982418;28;20484;-85
2022/10/09 12:33:26;;;;;;;4.93;2.70;;;;;;;;;;4998044;28;20038;-85
2022/10/09 12:36:04;;;;;;;3.42;1.58;;;;;;;;;;4996095;28;20053;-84
2022/10/09 12:38:31;;;;;;;4.35;1.88;;;;;;;;;;4987933;28;20019;-85
2022/10/09 12:40:59;;;;;;;4.65;1.90;;;;;;;;;;4985166;28;20393;-85
2022/10/09 12:43:25;;;;;;;5.25;1.85;;;;;;;;;;5021808;28;20044;-86
2022/10/09 12:45:53;;;;;;;4.10;1.90;;;;;;;;;;5058689;28;20025;-84
2022/10/09 12:48:24;;;;;;;3.95;1.85;;;;;;;;;;5059370;28;20044;-85
2022/10/09 12:50:50;;;;;;;3.90;1.70;;;;;;;;;;5036869;28;20043;-83
2022/10/09 12:53:17;;;;;;;4.72;1.90;;;;;;;;;;5037774;28;20367;-83
2022/10/09 12:55:44;;;;;;;5.10;2.00;;;;;;;;;;5054882;28;20029;-83
2022/10/09 12:58:22;;;;;;;4.78;1.90;;;;;;;;;;5054750;28;20029;-84
2022/10/09 13:00:49;;;;;;;4.78;2.13;;;;;;;;;;5053570;28;20025;-84
2022/10/09 13:03:22;;;;;;;4.68;2.13;;;;;;;;;;5033648;28;20282;-84
2022/10/09 13:05:48;;;;;;;;;;;;;;;;;;5054092;28;20045;-83
2022/10/09 13:08:24;;;;;;;4.43;1.70;;;;;;;;;;5054109;28;19905;-82
2022/10/09 13:10:51;;;;;;;5.05;1.70;;;;;;;;;;5055855;28;20021;-83
2022/10/09 13:13:19;;;;;;;5.45;2.05;;;;;;;;;;5055283;28;20025;-84
2022/10/09 13:15:45;;;;;;;4.60;1.90;;;;;;;;;;5035223;28;20025;-84
2022/10/09 13:18:21;;;;;;;5.05;1.90;;;;;;;;;;5036845;28;20499;-84
2022/10/09 13:20:58;;;;;;;5.10;1.80;;;;;;;;;;5055773;28;20479;-83
2022/10/09 13:23:28;;;;;;;4.13;1.55;;;;;;;;;;5055555;28;20025;-82
2022/10/09 13:25:54;;;;;;;4.70;2.03;;;;;;;;;;5036237;28;20106;-83
2022/10/09 13:28:20;;;;;;;4.47;1.60;;;;;;;;;;5055601;28;20024;-82
2022/10/09 13:30:47;;;;;;;4.05;1.85;;;;;;;;;;5053600;28;20103;-83
2022/10/09 13:33:14;;;;;;;6.32;1.85;;;;;;;;;;5047280;28;20060;-83
2022/10/09 13:35:40;;;;;;;4.43;1.70;;;;;;;;;;5054531;28;20037;-84
2022/10/09 13:38:06;;;;;;;4.90;1.42;;;;;;;;;;5036516;28;20021;-83
2022/10/09 13:40:32;;;;;;;4.22;1.77;;;;;;;;;;5056091;28;20100;-84
2022/10/09 13:43:00;;;;;;;5.60;2.35;;;;;;;;;;5054547;28;20120;-84
2022/10/09 13:45:27;;;;;;;3.85;1.60;;;;;;;;;;5053422;28;20100;-84
2022/10/09 13:47:53;;;;;;;4.47;2.10;;;;;;;;;;5053990;28;20086;-84
2022/10/09 13:50:19;;;;;;;4.15;1.73;;;;;;;;;;5051134;28;20025;-83
2022/10/09 13:52:46;;;;;;;3.55;1.63;;;;;;;;;;5053801;28;20086;-83
2022/10/09 13:55:12;;;;;;;3.65;1.70;;;;;;;;;;5033208;28;20140;-84
2022/10/09 13:57:38;;;;;;;4.38;1.90;;;;;;;;;;5035762;28;20081;-82
2022/10/09 14:00:05;;;;;;;4.43;1.70;;;;;;;;;;5035226;28;20126;-80
2022/10/09 14:02:31;;;;;;;3.85;1.85;;;;;;;;;;5048381;28;20028;-85
2022/10/09 14:04:57;;;;;;;4.18;2.05;;;;;;;;;;5056484;28;20021;-85
2022/10/09 14:07:23;;;;;;;5.10;1.95;;;;;;;;;;5037402;28;20075;-84
2022/10/09 14:09:49;;;;;;;5.72;1.60;;;;;;;;;;5053540;28;20502;-84
2022/10/09 14:12:15;;;;;;;5.78;2.55;;;;;;;;;;5054251;28;20382;-83
2022/10/09 14:14:42;;;;;;;4.75;2.08;;;;;;;;;;5057521;28;20483;-83
2022/10/09 14:17:08;;;;;;;6.40;1.90;;;;;;;;;;5038095;28;20352;-84
2022/10/09 14:19:34;;;;;;;4.50;1.63;;;;;;;;;;5053912;28;20033;-85
2022/10/09 14:22:01;;;;;;;4.32;1.23;;;;;;;;;;5048975;28;20033;-84
2022/10/09 14:24:27;;;;;;;2.97;1.17;;;;;;;;;;5047999;28;20033;-84
2022/10/09 14:26:53;;;;;;;3.50;1.60;;;;;;;;;;5055328;28;20083;-84
2022/10/09 14:29:19;;;;;;;2.92;1.60;;;;;;;;;;5057894;28;20024;-84
2022/10/09 14:31:45;;;;;;;2.88;1.00;;;;;;;;;;5056477;28;20024;-84
2022/10/09 14:34:13;;;;;;;3.80;1.30;;;;;;;;;;5056446;28;20036;-84
2022/10/09 14:36:40;;;;;;;4.28;1.17;;;;;;;;;;5039552;28;20021;-82
2022/10/09 14:39:06;;;;;;;4.25;1.20;;;;;;;;;;5056153;28;20025;-83
2022/10/09 14:41:32;;;;;;;4.57;1.20;;;;;;;;;;5039213;28;20033;-83
2022/10/09 14:43:59;;;;;;;2.40;1.00;;;;;;;;;;5036735;28;20029;-84
2022/10/09 14:46:26;;;;;;;3.80;1.10;;;;;;;;;;5056850;28;20096;-83
2022/10/09 14:48:53;;;;;;;3.63;1.17;;;;;;;;;;5060011;28;20053;-84